Date,TemperatureHighF,TemperatureAvgF,TemperatureLowF,DewpointHighF,DewpointAvgF,DewpointLowF,HumidityHigh,HumidityAvg,HumidityLow,PressureMaxIn,PressureMinIn,WindSpeedMaxMPH,WindSpeedAvgMPH,GustSpeedMaxMPH,PrecipitationSumIn
2014-1-1,26,20,14,15,11,7,87,68,49,30.41,30.25,6,1,11,0.00
2014-1-2,18,9,3,14,6,0,90,87,84,30.35,29.93,5,0,7,0.00
2014-1-3,11,4,-2,2,-2,-7,88,76,59,30.51,29.91,5,1,13,0.00
2014-1-4,22,4,-9,8,-2,-13,88,77,52,30.52,30.27,3,0,5,0.01
2014-1-5,42,18,-2,41,13,-6,98,83,56,30.36,29.78,12,1,16,0.01
2014-1-6,56,38,13,52,34,7,99,84,63,29.77,29.32,10,3,26,0.47
2014-1-7,12,6,3,3,-8,-12,66,53,43,30.31,29.68,16,3,22,0.00
2014-1-8,21,10,2,6,-1,-5,79,62,48,30.52,30.31,4,1,8,0.00
2014-1-10,35,26,14,29,22,11,95,87,76,30.55,30.24,2,0,7,0.00
2014-1-11,61,46,27,57,44,25,99,93,61,30.23,29.27,10,2,27,0.15
2014-1-12,45,39,35,41,30,26,85,72,61,30.03,29.37,10,2,18,0.00
2014-1-13,46,44,43,36,34,32,74,68,64,29.94,29.82,5,1,13,0.00
2014-1-14,45,41,36,41,38,35,98,90,72,29.85,29.70,6,1,12,0.22
2014-1-15,48,36,28,40,34,28,98,91,72,29.98,29.85,4,0,10,0.00
2014-1-16,35,31,28,32,26,25,93,84,75,29.97,29.91,2,0,7,0.02
2014-1-17,40,28,22,30,25,21,95,88,66,29.97,29.91,4,0,6,0.02
2014-1-18,32,25,22,30,23,20,95,91,80,29.92,29.70,5,0,9,0.01
2014-1-19,34,29,22,23,20,17,88,72,56,29.83,29.57,9,2,15,0.01
2014-1-20,39,32,19,30,24,9,86,71,64,29.96,29.54,6,2,14,0.00
2014-1-21,19,10,5,9,-1,-5,72,63,56,30.11,29.96,7,1,11,0.00
2014-1-22,15,5,-2,-1,-6,-10,75,62,47,30.05,29.89,8,1,14,0.00
2014-1-23,17,9,3,5,-1,-6,75,64,50,30.27,30.05,6,1,13,0.00
2014-1-24,19,11,4,3,-1,-6,72,58,33,30.37,29.95,7,1,13,0.00
2014-1-25,19,17,13,16,10,0,92,76,52,29.94,29.40,10,2,18,0.00
2014-1-26,20,15,9,16,5,-2,89,64,42,29.86,29.46,6,1,20,0.00
2014-1-27,46,24,12,32,11,-5,89,61,34,30.11,29.50,7,2,20,0.02
2014-1-28,17,11,5,3,-5,-9,69,49,35,30.36,30.11,5,1,12,0.00
2014-1-29,26,13,1,3,-3,-8,80,53,25,30.30,30.04,6,1,11,0.00
2014-1-30,29,17,4,9,4,-2,80,57,38,30.47,30.09,7,1,11,0.00
2014-1-31,36,26,17,21,13,5,77,59,48,30.24,30.05,3,0,9,0.00